sensor_id;sensor_type;location;lat;lon;timestamp;temperature;humidity
41668;DHT22;27356;50.920;5.350;2023-08-07T00:00:34;13.20;99.90
41668;DHT22;27356;50.920;5.350;2023-08-07T00:03:00;13.10;99.90
41668;DHT22;27356;50.920;5.350;2023-08-07T00:05:25;13.10;99.90
41668;DHT22;27356;50.920;5.350;2023-08-07T00:07:51;13.10;99.90
41668;DHT22;27356;50.920;5.350;2023-08-07T00:10:17;13.20;99.90
41668;DHT22;27356;50.920;5.350;2023-08-07T00:12:43;13.30;99.90
41668;DHT22;27356;50.920;5.350;2023-08-07T00:15:09;13.10;99.90
41668;DHT22;27356;50.920;5.350;2023-08-07T00:17:35;13.10;99.90
41668;DHT22;27356;50.920;5.350;2023-08-07T00:20:01;13.10;99.90
41668;DHT22;27356;50.920;5.350;2023-08-07T00:22:27;13.10;99.90
41668;DHT22;27356;50.920;5.350;2023-08-07T00:24:52;13.20;99.90
41668;DHT22;27356;50.920;5.350;2023-08-07T00:27:18;13.20;99.90
41668;DHT22;27356;50.920;5.350;2023-08-07T00:29:44;13.30;99.90
41668;DHT22;27356;50.920;5.350;2023-08-07T00:32:09;13.20;99.90
41668;DHT22;27356;50.920;5.350;2023-08-07T00:34:35;13.20;99.90
41668;DHT22;27356;50.920;5.350;2023-08-07T00:37:01;13.20;99.90
41668;DHT22;27356;50.920;5.350;2023-08-07T00:39:26;13.30;99.90
41668;DHT22;27356;50.920;5.350;2023-08-07T00:41:52;13.40;99.90
41668;DHT22;27356;50.920;5.350;2023-08-07T00:44:17;13.50;99.90
41668;DHT22;27356;50.920;5.350;2023-08-07T00:46:43;13.40;99.90
41668;DHT22;27356;50.920;5.350;2023-08-07T00:49:10;13.20;99.90
41668;DHT22;27356;50.920;5.350;2023-08-07T00:51:38;13.20;99.90
41668;DHT22;27356;50.920;5.350;2023-08-07T00:54:05;13.30;99.90
41668;DHT22;27356;50.920;5.350;2023-08-07T00:56:32;13.20;99.90
41668;DHT22;27356;50.920;5.350;2023-08-07T00:58:58;13.20;99.90
41668;DHT22;27356;50.920;5.350;2023-08-07T01:01:25;13.30;99.90
41668;DHT22;27356;50.920;5.350;2023-08-07T01:03:51;13.30;99.90
41668;DHT22;27356;50.920;5.350;2023-08-07T01:06:16;13.30;99.90
41668;DHT22;27356;50.920;5.350;2023-08-07T01:08:42;13.30;99.90
41668;DHT22;27356;50.920;5.350;2023-08-07T01:16:58;13.30;99.90
41668;DHT22;27356;50.920;5.350;2023-08-07T01:19:28;13.20;99.90
41668;DHT22;27356;50.920;5.350;2023-08-07T01:22:14;13.20;99.90
41668;DHT22;27356;50.920;5.350;2023-08-07T01:24:50;13.20;99.90
41668;DHT22;27356;50.920;5.350;2023-08-07T01:32:28;13.20;99.90
41668;DHT22;27356;50.920;5.350;2023-08-07T01:34:55;13.10;99.90
41668;DHT22;27356;50.920;5.350;2023-08-07T01:37:23;13.20;99.90
41668;DHT22;27356;50.920;5.350;2023-08-07T01:39:49;13.10;99.90
41668;DHT22;27356;50.920;5.350;2023-08-07T01:42:16;13.10;99.90
41668;DHT22;27356;50.920;5.350;2023-08-07T01:44:42;13.20;99.90
41668;DHT22;27356;50.920;5.350;2023-08-07T01:47:08;13.20;99.90
41668;DHT22;27356;50.920;5.350;2023-08-07T01:49:33;13.30;99.90
41668;DHT22;27356;50.920;5.350;2023-08-07T01:51:59;13.10;99.90
41668;DHT22;27356;50.920;5.350;2023-08-07T01:54:24;13.20;99.90
41668;DHT22;27356;50.920;5.350;2023-08-07T01:56:50;13.20;99.90
41668;DHT22;27356;50.920;5.350;2023-08-07T01:59:16;13.20;99.90
41668;DHT22;27356;50.920;5.350;2023-08-07T02:01:41;13.30;99.90
41668;DHT22;27356;50.920;5.350;2023-08-07T02:04:07;13.30;99.90
41668;DHT22;27356;50.920;5.350;2023-08-07T02:06:33;13.30;99.90
41668;DHT22;27356;50.920;5.350;2023-08-07T02:08:58;13.30;99.90
41668;DHT22;27356;50.920;5.350;2023-08-07T02:11:24;13.40;99.90
41668;DHT22;27356;50.920;5.350;2023-08-07T02:13:49;13.40;99.90
41668;DHT22;27356;50.920;5.350;2023-08-07T02:16:15;13.50;99.90
41668;DHT22;27356;50.920;5.350;2023-08-07T02:18:41;13.70;99.90
41668;DHT22;27356;50.920;5.350;2023-08-07T02:21:06;13.60;99.90
41668;DHT22;27356;50.920;5.350;2023-08-07T02:23:32;13.60;99.90
41668;DHT22;27356;50.920;5.350;2023-08-07T02:25:57;13.70;99.90
41668;DHT22;27356;50.920;5.350;2023-08-07T02:28:23;13.70;99.90
41668;DHT22;27356;50.920;5.350;2023-08-07T02:30:49;13.60;99.90
41668;DHT22;27356;50.920;5.350;2023-08-07T02:33:16;13.60;99.90
41668;DHT22;27356;50.920;5.350;2023-08-07T02:35:42;13.60;99.90
41668;DHT22;27356;50.920;5.350;2023-08-07T02:38:07;13.60;99.90
41668;DHT22;27356;50.920;5.350;2023-08-07T02:40:33;13.50;99.90
41668;DHT22;27356;50.920;5.350;2023-08-07T02:42:59;13.40;99.90
41668;DHT22;27356;50.920;5.350;2023-08-07T02:45:25;13.30;99.90
41668;DHT22;27356;50.920;5.350;2023-08-07T02:47:51;13.30;99.90
41668;DHT22;27356;50.920;5.350;2023-08-07T02:50:16;13.20;99.90
41668;DHT22;27356;50.920;5.350;2023-08-07T02:52:42;13.20;99.90
41668;DHT22;27356;50.920;5.350;2023-08-07T02:55:08;13.20;99.90
41668;DHT22;27356;50.920;5.350;2023-08-07T02:57:34;13.20;99.90
41668;DHT22;27356;50.920;5.350;2023-08-07T02:59:59;13.20;99.90
41668;DHT22;27356;50.920;5.350;2023-08-07T03:02:25;13.10;99.90
41668;DHT22;27356;50.920;5.350;2023-08-07T03:04:51;13.10;99.90
41668;DHT22;27356;50.920;5.350;2023-08-07T03:07:16;13.20;99.90
41668;DHT22;27356;50.920;5.350;2023-08-07T03:09:45;13.20;99.90
41668;DHT22;27356;50.920;5.350;2023-08-07T03:12:12;13.20;99.90
41668;DHT22;27356;50.920;5.350;2023-08-07T03:14:37;13.10;99.90
41668;DHT22;27356;50.920;5.350;2023-08-07T03:17:03;13.20;99.90
41668;DHT22;27356;50.920;5.350;2023-08-07T03:19:29;13.10;99.90
41668;DHT22;27356;50.920;5.350;2023-08-07T03:21:55;13.20;99.90
41668;DHT22;27356;50.920;5.350;2023-08-07T03:24:20;13.20;99.90
41668;DHT22;27356;50.920;5.350;2023-08-07T03:26:46;13.20;99.90
41668;DHT22;27356;50.920;5.350;2023-08-07T03:29:13;13.00;99.90
41668;DHT22;27356;50.920;5.350;2023-08-07T03:31:38;13.00;99.90
41668;DHT22;27356;50.920;5.350;2023-08-07T03:34:04;12.90;99.90
41668;DHT22;27356;50.920;5.350;2023-08-07T03:36:30;12.80;99.90
41668;DHT22;27356;50.920;5.350;2023-08-07T03:38:55;12.80;99.90
41668;DHT22;27356;50.920;5.350;2023-08-07T03:41:21;12.70;99.90
41668;DHT22;27356;50.920;5.350;2023-08-07T03:43:47;12.70;99.90
41668;DHT22;27356;50.920;5.350;2023-08-07T03:46:12;12.80;99.90
41668;DHT22;27356;50.920;5.350;2023-08-07T03:48:38;12.70;99.90
41668;DHT22;27356;50.920;5.350;2023-08-07T03:51:05;12.70;99.90
41668;DHT22;27356;50.920;5.350;2023-08-07T03:53:31;12.70;99.90
41668;DHT22;27356;50.920;5.350;2023-08-07T03:55:56;12.70;99.90
41668;DHT22;27356;50.920;5.350;2023-08-07T03:58:22;12.50;99.90
41668;DHT22;27356;50.920;5.350;2023-08-07T04:00:47;12.50;99.90
41668;DHT22;27356;50.920;5.350;2023-08-07T04:03:13;12.50;99.90
41668;DHT22;27356;50.920;5.350;2023-08-07T04:05:39;12.50;99.90
41668;DHT22;27356;50.920;5.350;2023-08-07T04:08:04;12.40;99.90
41668;DHT22;27356;50.920;5.350;2023-08-07T04:10:30;12.40;99.90
41668;DHT22;27356;50.920;5.350;2023-08-07T04:12:56;12.50;99.90
41668;DHT22;27356;50.920;5.350;2023-08-07T04:15:21;12.50;99.90
41668;DHT22;27356;50.920;5.350;2023-08-07T04:17:47;12.60;99.90
41668;DHT22;27356;50.920;5.350;2023-08-07T04:20:12;12.60;99.90
41668;DHT22;27356;50.920;5.350;2023-08-07T04:22:38;12.60;99.90
41668;DHT22;27356;50.920;5.350;2023-08-07T04:25:04;12.60;99.90
41668;DHT22;27356;50.920;5.350;2023-08-07T04:27:30;12.70;99.90
41668;DHT22;27356;50.920;5.350;2023-08-07T04:29:56;12.60;99.90
41668;DHT22;27356;50.920;5.350;2023-08-07T04:32:21;12.50;99.90
41668;DHT22;27356;50.920;5.350;2023-08-07T04:34:47;12.50;99.90
41668;DHT22;27356;50.920;5.350;2023-08-07T04:37:12;12.50;99.90
41668;DHT22;27356;50.920;5.350;2023-08-07T04:39:38;12.60;99.90
41668;DHT22;27356;50.920;5.350;2023-08-07T04:42:04;12.50;99.90
41668;DHT22;27356;50.920;5.350;2023-08-07T04:44:30;12.50;99.90
41668;DHT22;27356;50.920;5.350;2023-08-07T04:46:55;12.50;99.90
41668;DHT22;27356;50.920;5.350;2023-08-07T04:49:21;12.70;99.90
41668;DHT22;27356;50.920;5.350;2023-08-07T04:51:47;12.60;99.90
41668;DHT22;27356;50.920;5.350;2023-08-07T04:54:13;12.60;99.90
41668;DHT22;27356;50.920;5.350;2023-08-07T04:56:38;12.70;99.90
41668;DHT22;27356;50.920;5.350;2023-08-07T04:59:04;12.70;99.90
41668;DHT22;27356;50.920;5.350;2023-08-07T05:01:30;12.60;99.90
41668;DHT22;27356;50.920;5.350;2023-08-07T05:03:55;12.70;99.90
41668;DHT22;27356;50.920;5.350;2023-08-07T05:06:22;12.80;99.90
41668;DHT22;27356;50.920;5.350;2023-08-07T05:08:47;12.80;99.90
41668;DHT22;27356;50.920;5.350;2023-08-07T05:11:13;12.90;99.90
41668;DHT22;27356;50.920;5.350;2023-08-07T05:13:39;13.00;99.90
41668;DHT22;27356;50.920;5.350;2023-08-07T05:16:05;13.00;99.90
41668;DHT22;27356;50.920;5.350;2023-08-07T05:18:31;13.10;99.90
41668;DHT22;27356;50.920;5.350;2023-08-07T05:20:56;13.10;99.90
41668;DHT22;27356;50.920;5.350;2023-08-07T05:23:22;13.20;99.90
41668;DHT22;27356;50.920;5.350;2023-08-07T05:25:48;13.30;99.90
41668;DHT22;27356;50.920;5.350;2023-08-07T05:28:13;13.30;99.90
41668;DHT22;27356;50.920;5.350;2023-08-07T05:30:39;13.40;99.90
41668;DHT22;27356;50.920;5.350;2023-08-07T05:33:05;13.30;99.90
41668;DHT22;27356;50.920;5.350;2023-08-07T05:35:30;13.30;99.90
41668;DHT22;27356;50.920;5.350;2023-08-07T05:37:56;13.40;99.90
41668;DHT22;27356;50.920;5.350;2023-08-07T05:40:25;13.40;99.90
41668;DHT22;27356;50.920;5.350;2023-08-07T05:42:50;13.50;99.90
41668;DHT22;27356;50.920;5.350;2023-08-07T05:45:16;13.50;99.90
41668;DHT22;27356;50.920;5.350;2023-08-07T05:47:42;13.60;99.90
41668;DHT22;27356;50.920;5.350;2023-08-07T05:50:08;13.60;99.90
41668;DHT22;27356;50.920;5.350;2023-08-07T05:52:33;13.60;99.90
41668;DHT22;27356;50.920;5.350;2023-08-07T05:54:59;13.70;99.90
41668;DHT22;27356;50.920;5.350;2023-08-07T05:57:25;13.70;99.90
41668;DHT22;27356;50.920;5.350;2023-08-07T05:59:50;13.70;99.90
41668;DHT22;27356;50.920;5.350;2023-08-07T06:02:16;13.80;99.90
41668;DHT22;27356;50.920;5.350;2023-08-07T06:04:41;13.80;99.90
41668;DHT22;27356;50.920;5.350;2023-08-07T06:07:07;13.90;99.90
41668;DHT22;27356;50.920;5.350;2023-08-07T06:09:33;14.00;99.90
41668;DHT22;27356;50.920;5.350;2023-08-07T06:11:58;14.00;99.90
41668;DHT22;27356;50.920;5.350;2023-08-07T06:14:24;14.10;99.90
41668;DHT22;27356;50.920;5.350;2023-08-07T06:16:51;14.20;99.90
41668;DHT22;27356;50.920;5.350;2023-08-07T06:19:17;14.30;99.90
41668;DHT22;27356;50.920;5.350;2023-08-07T06:21:43;14.30;99.90
41668;DHT22;27356;50.920;5.350;2023-08-07T06:24:09;14.50;99.90
41668;DHT22;27356;50.920;5.350;2023-08-07T06:26:35;14.60;99.90
41668;DHT22;27356;50.920;5.350;2023-08-07T06:29:00;14.80;99.90
41668;DHT22;27356;50.920;5.350;2023-08-07T06:31:26;14.80;99.90
41668;DHT22;27356;50.920;5.350;2023-08-07T06:33:51;14.90;99.90
41668;DHT22;27356;50.920;5.350;2023-08-07T06:36:18;15.10;99.90
41668;DHT22;27356;50.920;5.350;2023-08-07T06:38:43;15.20;99.90
41668;DHT22;27356;50.920;5.350;2023-08-07T06:41:09;15.20;99.90
41668;DHT22;27356;50.920;5.350;2023-08-07T06:43:34;15.40;99.90
41668;DHT22;27356;50.920;5.350;2023-08-07T06:46:00;15.50;99.90
41668;DHT22;27356;50.920;5.350;2023-08-07T06:48:26;15.70;99.90
41668;DHT22;27356;50.920;5.350;2023-08-07T06:50:52;15.80;99.90
41668;DHT22;27356;50.920;5.350;2023-08-07T06:53:18;16.00;99.90
41668;DHT22;27356;50.920;5.350;2023-08-07T06:55:44;16.40;99.90
41668;DHT22;27356;50.920;5.350;2023-08-07T06:58:10;16.70;99.90
41668;DHT22;27356;50.920;5.350;2023-08-07T07:00:36;17.10;99.90
41668;DHT22;27356;50.920;5.350;2023-08-07T07:03:02;17.70;99.90
41668;DHT22;27356;50.920;5.350;2023-08-07T07:05:28;18.80;99.90
41668;DHT22;27356;50.920;5.350;2023-08-07T07:07:55;19.50;99.90
41668;DHT22;27356;50.920;5.350;2023-08-07T07:10:21;19.40;99.90
41668;DHT22;27356;50.920;5.350;2023-08-07T07:12:48;19.30;99.90
41668;DHT22;27356;50.920;5.350;2023-08-07T07:15:14;19.00;99.90
41668;DHT22;27356;50.920;5.350;2023-08-07T07:17:39;18.80;99.90
41668;DHT22;27356;50.920;5.350;2023-08-07T07:20:05;18.40;99.90
41668;DHT22;27356;50.920;5.350;2023-08-07T07:22:31;18.20;99.90
41668;DHT22;27356;50.920;5.350;2023-08-07T07:24:57;18.00;99.90
41668;DHT22;27356;50.920;5.350;2023-08-07T07:27:22;18.00;99.90
41668;DHT22;27356;50.920;5.350;2023-08-07T07:29:50;17.90;99.90
41668;DHT22;27356;50.920;5.350;2023-08-07T07:32:16;17.90;99.90
41668;DHT22;27356;50.920;5.350;2023-08-07T07:34:42;18.20;99.90
41668;DHT22;27356;50.920;5.350;2023-08-07T07:37:07;19.20;99.90
41668;DHT22;27356;50.920;5.350;2023-08-07T07:39:34;20.60;99.90
41668;DHT22;27356;50.920;5.350;2023-08-07T07:42:00;22.10;99.90
41668;DHT22;27356;50.920;5.350;2023-08-07T07:44:26;23.50;99.90
41668;DHT22;27356;50.920;5.350;2023-08-07T07:46:51;24.40;97.40
41668;DHT22;27356;50.920;5.350;2023-08-07T07:49:17;25.10;96.50
41668;DHT22;27356;50.920;5.350;2023-08-07T07:51:42;25.80;94.90
41668;DHT22;27356;50.920;5.350;2023-08-07T07:54:10;26.10;93.70
41668;DHT22;27356;50.920;5.350;2023-08-07T07:56:36;25.90;94.10
41668;DHT22;27356;50.920;5.350;2023-08-07T07:59:01;25.10;92.50
41668;DHT22;27356;50.920;5.350;2023-08-07T08:01:27;24.30;94.70
41668;DHT22;27356;50.920;5.350;2023-08-07T08:03:54;23.80;94.40
41668;DHT22;27356;50.920;5.350;2023-08-07T08:06:19;22.90;95.30
41668;DHT22;27356;50.920;5.350;2023-08-07T08:08:45;22.60;97.20
41668;DHT22;27356;50.920;5.350;2023-08-07T08:11:11;22.30;97.40
41668;DHT22;27356;50.920;5.350;2023-08-07T08:13:36;21.90;97.50
41668;DHT22;27356;50.920;5.350;2023-08-07T08:16:04;21.80;98.30
41668;DHT22;27356;50.920;5.350;2023-08-07T08:18:30;21.60;97.80
41668;DHT22;27356;50.920;5.350;2023-08-07T08:20:56;21.40;98.50
41668;DHT22;27356;50.920;5.350;2023-08-07T08:23:22;21.30;98.00
41668;DHT22;27356;50.920;5.350;2023-08-07T08:25:50;21.30;98.40
41668;DHT22;27356;50.920;5.350;2023-08-07T08:28:17;21.20;98.30
41668;DHT22;27356;50.920;5.350;2023-08-07T08:30:43;20.80;99.00
41668;DHT22;27356;50.920;5.350;2023-08-07T08:33:09;20.80;98.90
41668;DHT22;27356;50.920;5.350;2023-08-07T08:35:38;20.80;99.90
41668;DHT22;27356;50.920;5.350;2023-08-07T08:38:03;21.90;99.70
41668;DHT22;27356;50.920;5.350;2023-08-07T08:40:30;22.80;98.90
41668;DHT22;27356;50.920;5.350;2023-08-07T08:42:57;23.80;97.00
41668;DHT22;27356;50.920;5.350;2023-08-07T08:45:26;24.80;95.70
41668;DHT22;27356;50.920;5.350;2023-08-07T08:47:55;25.70;93.70
41668;DHT22;27356;50.920;5.350;2023-08-07T08:50:23;26.50;93.70
41668;DHT22;27356;50.920;5.350;2023-08-07T08:52:51;26.70;92.50
41668;DHT22;27356;50.920;5.350;2023-08-07T08:55:20;26.00;92.20
41668;DHT22;27356;50.920;5.350;2023-08-07T08:57:46;26.20;90.60
41668;DHT22;27356;50.920;5.350;2023-08-07T09:00:14;26.30;91.10
41668;DHT22;27356;50.920;5.350;2023-08-07T09:02:50;26.80;92.30
41668;DHT22;27356;50.920;5.350;2023-08-07T09:05:17;27.30;90.90
41668;DHT22;27356;50.920;5.350;2023-08-07T09:07:44;28.00;88.40
41668;DHT22;27356;50.920;5.350;2023-08-07T09:10:13;28.00;87.40
41668;DHT22;27356;50.920;5.350;2023-08-07T09:13:03;27.20;89.40
41668;DHT22;27356;50.920;5.350;2023-08-07T09:15:32;25.80;90.80
41668;DHT22;27356;50.920;5.350;2023-08-07T09:17:58;25.50;91.70
41668;DHT22;27356;50.920;5.350;2023-08-07T09:20:25;24.80;92.00
41668;DHT22;27356;50.920;5.350;2023-08-07T09:22:51;24.60;92.70
41668;DHT22;27356;50.920;5.350;2023-08-07T09:25:30;24.60;92.50
41668;DHT22;27356;50.920;5.350;2023-08-07T09:27:56;25.00;92.70
41668;DHT22;27356;50.920;5.350;2023-08-07T09:30:26;25.10;92.00
41668;DHT22;27356;50.920;5.350;2023-08-07T09:32:54;24.70;92.30
41668;DHT22;27356;50.920;5.350;2023-08-07T09:35:23;24.30;92.40
41668;DHT22;27356;50.920;5.350;2023-08-07T09:37:49;23.40;93.90
41668;DHT22;27356;50.920;5.350;2023-08-07T09:40:15;23.10;94.90
41668;DHT22;27356;50.920;5.350;2023-08-07T09:42:42;22.90;95.40
41668;DHT22;27356;50.920;5.350;2023-08-07T09:45:25;22.70;96.30
41668;DHT22;27356;50.920;5.350;2023-08-07T09:48:02;23.70;94.90
41668;DHT22;27356;50.920;5.350;2023-08-07T09:50:29;24.80;95.10
41668;DHT22;27356;50.920;5.350;2023-08-07T09:52:55;25.30;92.70
41668;DHT22;27356;50.920;5.350;2023-08-07T09:55:22;26.00;91.70
41668;DHT22;27356;50.920;5.350;2023-08-07T09:57:48;25.80;90.90
41668;DHT22;27356;50.920;5.350;2023-08-07T10:00:14;24.70;91.30
41668;DHT22;27356;50.920;5.350;2023-08-07T10:02:41;24.00;92.70
41668;DHT22;27356;50.920;5.350;2023-08-07T10:05:10;23.20;93.40
41668;DHT22;27356;50.920;5.350;2023-08-07T10:07:40;22.80;95.10
41668;DHT22;27356;50.920;5.350;2023-08-07T10:10:07;22.40;94.80
41668;DHT22;27356;50.920;5.350;2023-08-07T10:12:33;22.20;94.80
41668;DHT22;27356;50.920;5.350;2023-08-07T10:15:00;22.20;93.80
41668;DHT22;27356;50.920;5.350;2023-08-07T10:17:27;22.20;95.60
41668;DHT22;27356;50.920;5.350;2023-08-07T10:19:52;22.60;94.90
41668;DHT22;27356;50.920;5.350;2023-08-07T10:22:24;22.80;95.70
41668;DHT22;27356;50.920;5.350;2023-08-07T10:24:53;23.30;94.10
41668;DHT22;27356;50.920;5.350;2023-08-07T10:27:20;23.30;93.00
41668;DHT22;27356;50.920;5.350;2023-08-07T10:29:48;23.10;93.30
41668;DHT22;27356;50.920;5.350;2023-08-07T10:32:16;23.10;95.30
41668;DHT22;27356;50.920;5.350;2023-08-07T10:34:47;23.40;93.90
41668;DHT22;27356;50.920;5.350;2023-08-07T10:37:43;23.90;93.00
41668;DHT22;27356;50.920;5.350;2023-08-07T10:40:11;24.00;92.50
41668;DHT22;27356;50.920;5.350;2023-08-07T10:42:59;23.90;92.90
41668;DHT22;27356;50.920;5.350;2023-08-07T10:45:26;23.70;93.20
41668;DHT22;27356;50.920;5.350;2023-08-07T10:50:31;23.50;92.20
41668;DHT22;27356;50.920;5.350;2023-08-07T10:53:00;23.30;92.40
41668;DHT22;27356;50.920;5.350;2023-08-07T10:55:26;23.30;91.90
41668;DHT22;27356;50.920;5.350;2023-08-07T10:57:53;23.30;92.30
41668;DHT22;27356;50.920;5.350;2023-08-07T11:00:25;23.30;92.80
41668;DHT22;27356;50.920;5.350;2023-08-07T11:02:52;23.50;92.20
41668;DHT22;27356;50.920;5.350;2023-08-07T11:05:18;23.30;93.20
41668;DHT22;27356;50.920;5.350;2023-08-07T11:07:45;23.50;92.10
41668;DHT22;27356;50.920;5.350;2023-08-07T11:10:13;23.60;92.00
41668;DHT22;27356;50.920;5.350;2023-08-07T11:12:42;23.20;91.30
41668;DHT22;27356;50.920;5.350;2023-08-07T11:15:12;22.90;91.00
41668;DHT22;27356;50.920;5.350;2023-08-07T11:17:38;22.50;92.20
41668;DHT22;27356;50.920;5.350;2023-08-07T11:20:07;22.20;93.00
41668;DHT22;27356;50.920;5.350;2023-08-07T11:22:33;21.90;93.20
41668;DHT22;27356;50.920;5.350;2023-08-07T11:24:58;21.90;93.40
41668;DHT22;27356;50.920;5.350;2023-08-07T11:27:24;22.10;93.80
41668;DHT22;27356;50.920;5.350;2023-08-07T11:29:50;22.30;93.80
41668;DHT22;27356;50.920;5.350;2023-08-07T11:32:20;22.70;94.80
41668;DHT22;27356;50.920;5.350;2023-08-07T11:34:49;23.20;92.50
41668;DHT22;27356;50.920;5.350;2023-08-07T11:37:16;23.60;91.50
41668;DHT22;27356;50.920;5.350;2023-08-07T11:39:43;23.80;91.90
41668;DHT22;27356;50.920;5.350;2023-08-07T11:42:09;23.60;91.40
41668;DHT22;27356;50.920;5.350;2023-08-07T11:44:35;23.50;92.50
41668;DHT22;27356;50.920;5.350;2023-08-07T11:47:00;23.30;92.40
41668;DHT22;27356;50.920;5.350;2023-08-07T11:49:27;23.20;92.00
41668;DHT22;27356;50.920;5.350;2023-08-07T11:51:54;23.20;92.90
41668;DHT22;27356;50.920;5.350;2023-08-07T11:54:21;23.20;93.30
41668;DHT22;27356;50.920;5.350;2023-08-07T11:56:47;23.10;92.60
41668;DHT22;27356;50.920;5.350;2023-08-07T11:59:16;22.90;91.90
41668;DHT22;27356;50.920;5.350;2023-08-07T12:01:43;22.70;92.80
41668;DHT22;27356;50.920;5.350;2023-08-07T12:04:10;22.60;92.00
41668;DHT22;27356;50.920;5.350;2023-08-07T12:06:36;22.70;92.10
41668;DHT22;27356;50.920;5.350;2023-08-07T12:09:05;22.60;93.50
41668;DHT22;27356;50.920;5.350;2023-08-07T12:11:37;22.60;93.20
41668;DHT22;27356;50.920;5.350;2023-08-07T12:14:03;22.80;93.00
41668;DHT22;27356;50.920;5.350;2023-08-07T12:16:35;22.80;93.30
41668;DHT22;27356;50.920;5.350;2023-08-07T12:19:01;22.70;92.90
41668;DHT22;27356;50.920;5.350;2023-08-07T12:21:27;22.70;93.20
41668;DHT22;27356;50.920;5.350;2023-08-07T12:23:57;22.80;92.50
41668;DHT22;27356;50.920;5.350;2023-08-07T12:26:23;22.80;93.10
41668;DHT22;27356;50.920;5.350;2023-08-07T12:28:49;23.10;92.10
41668;DHT22;27356;50.920;5.350;2023-08-07T12:31:15;23.10;91.50
41668;DHT22;27356;50.920;5.350;2023-08-07T12:33:42;22.90;91.40
41668;DHT22;27356;50.920;5.350;2023-08-07T12:36:08;22.90;91.90
41668;DHT22;27356;50.920;5.350;2023-08-07T12:38:35;22.60;91.10
41668;DHT22;27356;50.920;5.350;2023-08-07T12:41:01;22.30;91.90
41668;DHT22;27356;50.920;5.350;2023-08-07T12:43:28;21.90;91.80
41668;DHT22;27356;50.920;5.350;2023-08-07T12:45:54;21.70;93.00
41668;DHT22;27356;50.920;5.350;2023-08-07T12:48:20;21.70;92.90
41668;DHT22;27356;50.920;5.350;2023-08-07T12:50:46;21.90;92.80
41668;DHT22;27356;50.920;5.350;2023-08-07T12:53:11;22.10;92.90
41668;DHT22;27356;50.920;5.350;2023-08-07T12:55:37;22.10;91.80
41668;DHT22;27356;50.920;5.350;2023-08-07T12:58:02;21.90;91.20
41668;DHT22;27356;50.920;5.350;2023-08-07T13:00:28;21.90;91.70
41668;DHT22;27356;50.920;5.350;2023-08-07T13:02:54;21.80;91.90
41668;DHT22;27356;50.920;5.350;2023-08-07T13:05:24;21.90;92.40
41668;DHT22;27356;50.920;5.350;2023-08-07T13:07:49;22.00;92.60
41668;DHT22;27356;50.920;5.350;2023-08-07T13:10:16;22.30;92.10
41668;DHT22;27356;50.920;5.350;2023-08-07T13:12:44;22.60;91.90
41668;DHT22;27356;50.920;5.350;2023-08-07T13:15:14;22.90;91.50
41668;DHT22;27356;50.920;5.350;2023-08-07T13:17:40;22.80;92.30
41668;DHT22;27356;50.920;5.350;2023-08-07T13:20:07;23.00;91.20
41668;DHT22;27356;50.920;5.350;2023-08-07T13:22:43;23.00;90.60
41668;DHT22;27356;50.920;5.350;2023-08-07T13:25:12;22.90;91.50
41668;DHT22;27356;50.920;5.350;2023-08-07T13:27:39;22.80;91.30
41668;DHT22;27356;50.920;5.350;2023-08-07T13:30:05;22.80;91.30
41668;DHT22;27356;50.920;5.350;2023-08-07T13:32:32;22.80;91.40
41668;DHT22;27356;50.920;5.350;2023-08-07T13:34:57;22.90;90.50
41668;DHT22;27356;50.920;5.350;2023-08-07T13:37:23;23.00;90.30
41668;DHT22;27356;50.920;5.350;2023-08-07T13:39:49;23.30;90.70
41668;DHT22;27356;50.920;5.350;2023-08-07T13:42:17;23.30;90.50
41668;DHT22;27356;50.920;5.350;2023-08-07T13:44:43;23.00;90.10
41668;DHT22;27356;50.920;5.350;2023-08-07T13:47:09;22.70;91.90
41668;DHT22;27356;50.920;5.350;2023-08-07T13:49:36;22.70;92.00
41668;DHT22;27356;50.920;5.350;2023-08-07T13:52:01;22.70;91.50
41668;DHT22;27356;50.920;5.350;2023-08-07T13:54:27;22.90;91.90
41668;DHT22;27356;50.920;5.350;2023-08-07T13:56:53;23.20;91.10
41668;DHT22;27356;50.920;5.350;2023-08-07T13:59:19;23.30;90.40
41668;DHT22;27356;50.920;5.350;2023-08-07T14:01:44;23.20;90.90
41668;DHT22;27356;50.920;5.350;2023-08-07T14:04:10;23.20;91.50
41668;DHT22;27356;50.920;5.350;2023-08-07T14:06:36;23.20;91.70
41668;DHT22;27356;50.920;5.350;2023-08-07T14:09:02;23.10;92.10
41668;DHT22;27356;50.920;5.350;2023-08-07T14:11:29;23.30;91.80
41668;DHT22;27356;50.920;5.350;2023-08-07T14:13:59;23.20;91.50
41668;DHT22;27356;50.920;5.350;2023-08-07T14:16:25;22.80;90.90
41668;DHT22;27356;50.920;5.350;2023-08-07T14:18:51;22.70;91.30
41668;DHT22;27356;50.920;5.350;2023-08-07T14:21:17;22.50;91.30
41668;DHT22;27356;50.920;5.350;2023-08-07T14:23:43;22.40;92.40
41668;DHT22;27356;50.920;5.350;2023-08-07T14:26:11;22.20;92.60
41668;DHT22;27356;50.920;5.350;2023-08-07T14:28:37;22.30;92.10
41668;DHT22;27356;50.920;5.350;2023-08-07T14:31:06;22.00;92.70
41668;DHT22;27356;50.920;5.350;2023-08-07T14:33:32;22.10;93.00
41668;DHT22;27356;50.920;5.350;2023-08-07T14:35:58;22.30;92.40
41668;DHT22;27356;50.920;5.350;2023-08-07T14:38:27;22.40;93.20
41668;DHT22;27356;50.920;5.350;2023-08-07T14:40:53;22.50;93.10
41668;DHT22;27356;50.920;5.350;2023-08-07T14:43:19;22.50;92.40
41668;DHT22;27356;50.920;5.350;2023-08-07T14:45:45;22.60;92.70
41668;DHT22;27356;50.920;5.350;2023-08-07T14:48:10;22.60;92.60
41668;DHT22;27356;50.920;5.350;2023-08-07T14:50:36;22.60;93.30
41668;DHT22;27356;50.920;5.350;2023-08-07T14:53:02;22.60;92.80
41668;DHT22;27356;50.920;5.350;2023-08-07T14:55:27;22.60;93.20
41668;DHT22;27356;50.920;5.350;2023-08-07T14:57:53;22.80;93.60
41668;DHT22;27356;50.920;5.350;2023-08-07T15:00:19;22.90;92.60
41668;DHT22;27356;50.920;5.350;2023-08-07T15:02:45;23.00;93.00
41668;DHT22;27356;50.920;5.350;2023-08-07T15:05:13;23.20;93.00
41668;DHT22;27356;50.920;5.350;2023-08-07T15:07:38;23.20;93.00
41668;DHT22;27356;50.920;5.350;2023-08-07T15:10:04;23.30;92.40
41668;DHT22;27356;50.920;5.350;2023-08-07T15:12:30;23.30;92.10
41668;DHT22;27356;50.920;5.350;2023-08-07T15:14:56;23.30;92.40
41668;DHT22;27356;50.920;5.350;2023-08-07T15:17:22;23.20;92.60
41668;DHT22;27356;50.920;5.350;2023-08-07T15:19:47;23.00;92.50
41668;DHT22;27356;50.920;5.350;2023-08-07T15:22:13;22.90;93.60
41668;DHT22;27356;50.920;5.350;2023-08-07T15:24:38;22.90;93.70
41668;DHT22;27356;50.920;5.350;2023-08-07T15:27:06;22.90;93.90
41668;DHT22;27356;50.920;5.350;2023-08-07T15:29:32;23.10;93.40
41668;DHT22;27356;50.920;5.350;2023-08-07T15:31:58;23.30;92.60
41668;DHT22;27356;50.920;5.350;2023-08-07T15:34:24;23.20;92.80
41668;DHT22;27356;50.920;5.350;2023-08-07T15:36:49;23.00;92.80
41668;DHT22;27356;50.920;5.350;2023-08-07T15:39:15;22.80;93.00